createdAt,value
2018-02-26T00:00:36.665Z,58.70
2018-02-26T00:03:10.101Z,58.50
2018-02-26T00:05:42.867Z,58.40
2018-02-26T00:08:16.180Z,59.40
2018-02-26T00:10:48.886Z,58.20
2018-02-26T00:13:21.319Z,58.40
2018-02-26T00:15:53.858Z,58.70
2018-02-26T00:18:26.975Z,59.90
2018-02-26T00:20:59.837Z,59.10
2018-02-26T00:23:32.203Z,58.60
2018-02-26T00:26:04.698Z,58.60
2018-02-26T00:28:37.904Z,58.60
2018-02-26T00:31:12.849Z,57.80
2018-02-26T00:33:45.340Z,58.00
2018-02-26T00:36:17.998Z,58.50
2018-02-26T00:38:50.413Z,58.60
2018-02-26T00:41:23.783Z,58.60
2018-02-26T00:43:56.357Z,58.30
2018-02-26T00:46:28.836Z,58.90
2018-02-26T00:49:02.094Z,58.70
2018-02-26T00:51:34.695Z,57.60
2018-02-26T00:54:07.141Z,57.90
2018-02-26T00:56:41.486Z,58.00
2018-02-26T00:59:14.759Z,58.10
2018-02-26T01:01:47.427Z,57.40
2018-02-26T01:04:20.783Z,57.80
2018-02-26T01:06:53.272Z,57.80
2018-02-26T01:09:25.786Z,58.30
2018-02-26T01:11:58.223Z,57.60
2018-02-26T01:14:30.738Z,57.80
2018-02-26T01:17:04.064Z,57.60
2018-02-26T01:19:36.900Z,57.30
2018-02-26T01:22:09.332Z,57.90
2018-02-26T01:24:41.727Z,58.70
2018-02-26T01:27:15.058Z,57.40
2018-02-26T01:29:48.031Z,57.30
2018-02-26T01:32:21.393Z,57.60
2018-02-26T01:34:54.893Z,57.90
2018-02-26T01:37:27.446Z,57.40
2018-02-26T01:40:00.142Z,58.10
2018-02-26T01:42:33.240Z,57.30
2018-02-26T01:45:06.731Z,57.50
2018-02-26T01:47:40.146Z,58.30
2018-02-26T01:50:12.699Z,57.60
2018-02-26T01:52:45.271Z,58.30
2018-02-26T01:55:17.633Z,57.60
2018-02-26T01:57:52.725Z,57.50
2018-02-26T02:00:25.330Z,57.10
2018-02-26T02:02:58.501Z,57.20
2018-02-26T02:05:31.072Z,57.20
2018-02-26T02:08:03.618Z,57.20
2018-02-26T02:10:36.022Z,57.50
2018-02-26T02:13:09.409Z,57.20
2018-02-26T02:15:42.855Z,57.50
2018-02-26T02:18:16.277Z,57.80
2018-02-26T02:20:50.719Z,57.70
2018-02-26T02:23:23.623Z,57.70
2018-02-26T02:25:56.133Z,58.40
2018-02-26T02:28:28.657Z,56.70
2018-02-26T02:31:01.278Z,56.90
2018-02-26T02:33:33.714Z,57.60
2018-02-26T02:36:06.096Z,57.70
2018-02-26T02:38:39.239Z,58.20
2018-02-26T02:41:11.891Z,58.00
2018-02-26T02:43:44.258Z,57.10
2018-02-26T02:46:18.379Z,56.70
2018-02-26T02:48:51.271Z,56.90
2018-02-26T02:51:24.639Z,57.50
2018-02-26T02:53:58.281Z,57.60
2018-02-26T02:56:31.096Z,57.00
2018-02-26T02:59:03.644Z,57.60
2018-02-26T03:01:36.898Z,57.90
2018-02-26T03:04:10.417Z,57.40
2018-02-26T03:06:43.195Z,57.20
2018-02-26T03:09:15.648Z,57.10
2018-02-26T03:11:48.780Z,57.10
2018-02-26T03:14:22.401Z,57.30
2018-02-26T03:16:54.965Z,57.30
2018-02-26T03:19:30.377Z,57.10
2018-02-26T03:22:03.483Z,57.70
2018-02-26T03:24:36.122Z,57.50
2018-02-26T03:27:08.528Z,58.10
2018-02-26T03:29:41.804Z,57.80
2018-02-26T03:32:15.302Z,58.80
2018-02-26T03:34:47.915Z,58.20
2018-02-26T03:37:20.315Z,58.00
2018-02-26T03:39:52.763Z,58.10
2018-02-26T03:42:26.092Z,59.00
2018-02-26T03:44:59.624Z,58.80
2018-02-26T03:47:32.225Z,57.80
2018-02-26T03:50:04.716Z,58.70
2018-02-26T03:52:38.859Z,59.00
2018-02-26T03:55:12.478Z,58.50
2018-02-26T03:57:46.027Z,59.20
2018-02-26T04:00:19.784Z,59.20
2018-02-26T04:02:52.488Z,58.90
2018-02-26T04:05:26.611Z,59.30
2018-02-26T04:08:00.447Z,59.50
2018-02-26T04:10:33.879Z,59.40
2018-02-26T04:13:07.529Z,59.10
2018-02-26T04:15:41.809Z,59.60
2018-02-26T04:18:14.603Z,59.00
2018-02-26T04:20:47.033Z,59.20
2018-02-26T04:23:19.434Z,59.50
2018-02-26T04:25:51.957Z,59.40
2018-02-26T04:28:25.141Z,60.00
2018-02-26T04:30:58.518Z,60.00
2018-02-26T04:33:31.967Z,60.00
2018-02-26T04:36:04.735Z,60.00
2018-02-26T04:38:37.991Z,61.20
2018-02-26T04:41:10.609Z,61.00
2018-02-26T04:43:42.994Z,60.50
2018-02-26T04:46:16.165Z,61.20
2018-02-26T04:48:49.641Z,62.20
2018-02-26T04:51:22.283Z,60.90
2018-02-26T04:53:55.613Z,61.60
2018-02-26T04:56:28.396Z,61.80
2018-02-26T04:59:00.966Z,61.30
2018-02-26T05:01:33.495Z,61.60
2018-02-26T05:04:07.651Z,61.80
2018-02-26T05:06:41.259Z,61.50
2018-02-26T05:09:14.528Z,62.50
2018-02-26T05:11:48.059Z,61.70
2018-02-26T05:14:21.466Z,61.60
2018-02-26T05:16:55.055Z,62.10
2018-02-26T05:19:28.521Z,62.00
2018-02-26T05:22:02.112Z,62.10
2018-02-26T05:24:35.644Z,62.10
2018-02-26T05:27:09.136Z,61.90
2018-02-26T05:29:42.700Z,62.00
2018-02-26T05:32:16.223Z,62.10
2018-02-26T05:34:49.737Z,62.10
2018-02-26T05:37:22.459Z,62.20
2018-02-26T05:39:54.830Z,62.30
2018-02-26T05:42:27.155Z,62.40
2018-02-26T05:44:59.576Z,63.20
2018-02-26T05:47:32.113Z,62.90
2018-02-26T05:50:05.439Z,62.50
2018-02-26T05:52:39.307Z,62.70
2018-02-26T05:55:12.284Z,62.40
2018-02-26T05:57:44.748Z,63.20
2018-02-26T06:00:17.848Z,64.00
2018-02-26T06:02:51.441Z,63.50
2018-02-26T06:05:24.709Z,63.80
2018-02-26T06:07:57.466Z,63.80
2018-02-26T06:10:30.781Z,63.90
2018-02-26T06:13:03.460Z,63.90
2018-02-26T06:15:36.769Z,63.40
2018-02-26T06:18:10.217Z,63.30
2018-02-26T06:20:43.594Z,63.40
2018-02-26T06:23:16.319Z,63.30
2018-02-26T06:25:48.772Z,63.00
2018-02-26T06:28:22.165Z,63.60
2018-02-26T06:30:55.563Z,63.20
2018-02-26T06:33:28.901Z,63.60
2018-02-26T06:36:01.828Z,62.90
2018-02-26T06:38:34.223Z,62.90
2018-02-26T06:41:07.407Z,62.70
2018-02-26T06:43:40.321Z,62.90
2018-02-26T06:46:13.491Z,62.80
2018-02-26T06:48:46.804Z,62.20
2018-02-26T06:51:20.284Z,61.80
2018-02-26T06:53:53.697Z,62.00
2018-02-26T06:56:27.148Z,62.20
2018-02-26T06:58:59.997Z,61.70
2018-02-26T07:01:32.396Z,61.70
2018-02-26T07:04:05.744Z,62.00
2018-02-26T07:06:39.210Z,61.60
2018-02-26T07:09:11.960Z,61.60
2018-02-26T07:11:45.197Z,60.00
2018-02-26T07:14:17.961Z,59.60
2018-02-26T07:16:50.504Z,59.60
2018-02-26T07:19:22.980Z,60.80
2018-02-26T07:21:55.326Z,60.90
2018-02-26T07:24:27.752Z,60.60
2018-02-26T07:27:00.127Z,59.70
2018-02-26T07:29:33.471Z,59.70
2018-02-26T07:32:06.130Z,59.40
2018-02-26T07:34:39.312Z,58.80
2018-02-26T07:37:11.994Z,58.60
2018-02-26T07:39:44.391Z,58.10
2018-02-26T07:42:16.812Z,57.70
2018-02-26T07:44:50.137Z,55.90
2018-02-26T07:47:23.780Z,56.50
2018-02-26T07:49:57.426Z,54.90
2018-02-26T07:52:30.798Z,55.30
2018-02-26T07:55:03.495Z,55.30
2018-02-26T07:57:36.004Z,54.80
2018-02-26T08:00:09.344Z,54.30
2018-02-26T08:02:42.824Z,52.80
2018-02-26T08:05:16.347Z,53.20
2018-02-26T08:07:49.899Z,53.10
2018-02-26T08:10:23.549Z,53.20
2018-02-26T08:12:56.101Z,53.00
2018-02-26T08:15:29.432Z,52.70
2018-02-26T08:18:02.094Z,52.40
2018-02-26T08:20:35.258Z,53.30
2018-02-26T08:23:07.987Z,53.50
2018-02-26T08:25:40.401Z,53.40
2018-02-26T08:28:12.848Z,53.80
2018-02-26T08:30:45.248Z,53.80
2018-02-26T08:33:18.463Z,53.10
2018-02-26T08:35:52.074Z,52.60
2018-02-26T08:38:24.891Z,52.60
2018-02-26T08:40:58.965Z,53.50
2018-02-26T08:43:31.890Z,53.50
2018-02-26T08:46:04.594Z,52.80
2018-02-26T08:48:36.988Z,51.90
2018-02-26T08:51:09.702Z,51.70
2018-02-26T08:53:43.751Z,50.20
2018-02-26T08:56:16.764Z,50.20
2018-02-26T08:58:49.416Z,50.20
2018-02-26T09:01:22.054Z,51.30
2018-02-26T09:03:56.024Z,51.60
2018-02-26T09:06:29.741Z,51.30
2018-02-26T09:09:03.139Z,50.80
2018-02-26T09:11:35.823Z,50.80
2018-02-26T09:14:08.204Z,50.40
2018-02-26T09:16:41.606Z,51.40
2018-02-26T09:19:15.022Z,50.30
2018-02-26T09:21:48.449Z,51.00
2018-02-26T09:24:21.106Z,50.70
2018-02-26T09:26:54.505Z,51.10
2018-02-26T09:29:28.418Z,50.10
2018-02-26T09:32:01.464Z,50.20
2018-02-26T09:34:34.677Z,50.80
2018-02-26T09:37:08.316Z,51.20
2018-02-26T09:39:41.821Z,51.00
2018-02-26T09:42:15.461Z,50.40
2018-02-26T09:44:49.159Z,50.30
2018-02-26T09:47:21.764Z,50.70
2018-02-26T09:50:01.120Z,49.10
2018-02-26T09:52:34.539Z,48.10
2018-02-26T09:55:07.901Z,46.70
2018-02-26T09:57:41.519Z,46.50
2018-02-26T10:00:14.245Z,45.80
2018-02-26T10:02:47.581Z,41.60
2018-02-26T10:05:21.278Z,44.40
2018-02-26T10:07:54.401Z,44.10
2018-02-26T10:10:27.903Z,43.20
2018-02-26T10:13:00.420Z,41.90
2018-02-26T10:15:32.798Z,42.80
2018-02-26T10:18:06.040Z,42.60
2018-02-26T10:20:38.837Z,42.50
2018-02-26T10:23:12.214Z,44.10
2018-02-26T10:25:44.803Z,45.20
2018-02-26T10:28:17.398Z,46.60
2018-02-26T10:30:49.968Z,46.00
2018-02-26T10:33:22.379Z,45.70
2018-02-26T10:35:54.759Z,46.80
2018-02-26T10:38:27.967Z,47.20
2018-02-26T10:41:00.692Z,47.10
2018-02-26T10:43:34.195Z,48.30
2018-02-26T10:46:07.492Z,49.80
2018-02-26T10:48:39.939Z,50.40
2018-02-26T10:51:13.229Z,50.50
2018-02-26T10:53:46.590Z,50.50
2018-02-26T10:56:19.944Z,50.40
2018-02-26T10:58:53.439Z,48.70
2018-02-26T11:01:26.227Z,48.80
2018-02-26T11:03:59.637Z,51.20
2018-02-26T11:06:32.349Z,51.30
2018-02-26T11:09:05.542Z,49.50
2018-02-26T11:11:39.274Z,50.30
2018-02-26T11:14:12.788Z,50.70
2018-02-26T11:16:45.526Z,50.80
2018-02-26T11:19:18.637Z,49.60
2018-02-26T11:21:52.170Z,48.60
2018-02-26T11:24:25.661Z,48.30
2018-02-26T11:26:58.468Z,48.20
2018-02-26T11:29:32.545Z,48.70
2018-02-26T11:32:06.391Z,48.30
2018-02-26T11:34:39.810Z,47.90
2018-02-26T11:37:12.395Z,47.80
2018-02-26T11:39:44.824Z,46.40
2018-02-26T11:42:17.396Z,46.70
2018-02-26T11:44:50.690Z,47.00
2018-02-26T11:47:23.175Z,47.60
2018-02-26T11:49:55.715Z,48.00
2018-02-26T11:52:28.906Z,50.40
2018-02-26T11:55:01.805Z,50.50
2018-02-26T11:57:34.192Z,50.10
2018-02-26T12:00:07.516Z,50.10
2018-02-26T12:02:39.957Z,50.00
2018-02-26T12:05:12.438Z,50.50
2018-02-26T12:07:45.026Z,50.30
2018-02-26T12:10:17.427Z,50.70
2018-02-26T12:12:50.729Z,50.70
2018-02-26T12:15:23.388Z,50.60
2018-02-26T12:17:55.852Z,50.80
2018-02-26T12:20:29.228Z,50.20
2018-02-26T12:23:02.351Z,52.40
2018-02-26T12:25:35.631Z,51.00
2018-02-26T12:28:09.320Z,49.30
2018-02-26T12:30:42.927Z,49.60
2018-02-26T12:33:15.681Z,49.40
2018-02-26T12:35:48.163Z,49.70
2018-02-26T12:38:20.791Z,49.30
2018-02-26T12:40:53.253Z,48.50
2018-02-26T12:43:25.697Z,49.30
2018-02-26T12:45:58.929Z,49.50
2018-02-26T12:48:31.691Z,49.00
2018-02-26T12:51:04.263Z,48.20
2018-02-26T12:53:36.655Z,48.50
2018-02-26T12:56:09.014Z,48.20
2018-02-26T12:58:41.409Z,48.10
2018-02-26T13:01:13.772Z,48.30
2018-02-26T13:03:46.153Z,48.20
2018-02-26T13:06:18.596Z,49.70
2018-02-26T13:08:50.945Z,50.10
2018-02-26T13:11:23.409Z,50.30
2018-02-26T13:13:56.050Z,49.20
2018-02-26T13:16:29.299Z,48.10
2018-02-26T13:19:01.977Z,48.10
2018-02-26T13:21:34.608Z,48.70
2018-02-26T13:24:06.995Z,48.80
2018-02-26T13:26:41.054Z,49.90
2018-02-26T13:29:13.748Z,50.00
2018-02-26T13:31:47.030Z,49.60
2018-02-26T13:34:20.127Z,49.20
2018-02-26T13:36:52.955Z,49.10
2018-02-26T13:39:27.137Z,48.50
2018-02-26T13:42:00.793Z,48.80
2018-02-26T13:44:33.689Z,48.80
2018-02-26T13:47:06.208Z,48.10
2018-02-26T13:49:39.613Z,48.80
2018-02-26T13:52:13.075Z,47.60
2018-02-26T13:54:45.688Z,47.50
2018-02-26T13:57:18.177Z,48.10
2018-02-26T13:59:50.611Z,48.80
2018-02-26T14:02:23.962Z,49.90
2018-02-26T14:04:56.607Z,49.30
2018-02-26T14:07:29.899Z,49.70
2018-02-26T14:10:02.440Z,51.20
2018-02-26T14:12:36.547Z,51.20
2018-02-26T14:15:10.088Z,52.00
2018-02-26T14:17:43.623Z,52.40
2018-02-26T14:20:16.246Z,52.70
2018-02-26T14:22:48.698Z,53.40
2018-02-26T14:25:21.128Z,51.30
2018-02-26T14:27:53.791Z,51.70
2018-02-26T14:30:26.255Z,51.80
2018-02-26T14:32:58.692Z,52.40
2018-02-26T14:35:32.532Z,54.20
2018-02-26T14:38:05.261Z,54.00
2018-02-26T14:40:37.879Z,55.40
2018-02-26T14:43:10.328Z,55.60
2018-02-26T14:45:43.733Z,55.30
2018-02-26T14:48:16.504Z,53.30
2018-02-26T14:50:48.972Z,54.10
2018-02-26T14:53:22.133Z,53.00
2018-02-26T14:55:55.736Z,52.90
2018-02-26T14:58:29.218Z,50.50
2018-02-26T15:01:02.701Z,51.20
2018-02-26T15:03:35.369Z,51.30
2018-02-26T15:06:07.791Z,52.00
2018-02-26T15:08:41.153Z,52.40
2018-02-26T15:11:13.700Z,52.60
2018-02-26T15:13:46.373Z,51.60
2018-02-26T15:16:19.503Z,51.60
2018-02-26T15:18:52.277Z,51.90
2018-02-26T15:21:25.593Z,52.00
2018-02-26T15:23:58.919Z,52.80
2018-02-26T15:26:31.410Z,53.50
2018-02-26T15:29:04.695Z,52.30
2018-02-26T15:31:38.093Z,53.00
2018-02-26T15:34:10.813Z,52.60
2018-02-26T15:36:44.192Z,53.20
2018-02-26T15:39:18.685Z,53.90
2018-02-26T15:41:50.986Z,52.80
2018-02-26T15:44:23.507Z,53.50
2018-02-26T15:46:56.765Z,54.50
2018-02-26T15:49:29.416Z,54.40
2018-02-26T15:52:02.764Z,55.00
2018-02-26T15:54:36.357Z,56.40
2018-02-26T15:57:09.251Z,56.10
2018-02-26T15:59:42.597Z,56.40
2018-02-26T16:02:16.060Z,56.20
2018-02-26T16:04:50.195Z,57.20
2018-02-26T16:07:23.172Z,57.20
2018-02-26T16:09:55.581Z,56.20
2018-02-26T16:12:28.149Z,56.20
2018-02-26T16:15:01.322Z,56.70
2018-02-26T16:17:34.148Z,56.80
2018-02-26T16:20:06.604Z,56.30
2018-02-26T16:22:39.823Z,55.50
2018-02-26T16:25:12.600Z,55.60
2018-02-26T16:27:45.107Z,56.20
2018-02-26T16:30:18.302Z,55.90
2018-02-26T16:32:51.775Z,55.80
2018-02-26T16:35:24.588Z,55.50
2018-02-26T16:37:57.981Z,56.00
2018-02-26T16:40:31.358Z,56.20
2018-02-26T16:43:04.688Z,57.00
2018-02-26T16:45:37.396Z,57.10
2018-02-26T16:48:09.892Z,57.30
2018-02-26T16:50:42.317Z,57.20
2018-02-26T16:53:15.439Z,57.40
2018-02-26T16:55:48.144Z,57.40
2018-02-26T16:58:21.408Z,58.30
2018-02-26T17:00:54.123Z,58.40
2018-02-26T17:03:26.643Z,59.00
2018-02-26T17:06:00.719Z,58.50
2018-02-26T17:08:33.329Z,58.20
2018-02-26T17:11:06.534Z,59.30
2018-02-26T17:13:40.540Z,59.10
2018-02-26T17:16:13.983Z,59.50
2018-02-26T17:18:47.523Z,59.80
2018-02-26T17:21:20.976Z,60.70
2018-02-26T17:23:53.579Z,60.40
2018-02-26T17:26:26.773Z,60.70
2018-02-26T17:28:59.169Z,60.40
2018-02-26T17:31:33.361Z,60.20
2018-02-26T17:34:06.783Z,60.50
2018-02-26T17:36:39.745Z,60.60
2018-02-26T17:39:12.832Z,61.00
2018-02-26T17:41:45.336Z,61.30
2018-02-26T17:44:18.769Z,62.60
2018-02-26T17:46:51.532Z,62.20
2018-02-26T17:49:25.052Z,61.60
2018-02-26T17:51:57.584Z,63.00
2018-02-26T17:54:31.853Z,61.90
2018-02-26T17:57:05.024Z,62.10
2018-02-26T17:59:38.601Z,63.00
2018-02-26T18:02:12.225Z,62.80
2018-02-26T18:04:45.571Z,63.70
2018-02-26T18:07:19.498Z,64.20
2018-02-26T18:09:52.847Z,64.00
2018-02-26T18:12:27.062Z,64.60
2018-02-26T18:15:00.899Z,65.20
2018-02-26T18:17:34.339Z,66.30
2018-02-26T18:20:07.452Z,66.20
2018-02-26T18:22:40.842Z,66.20
2018-02-26T18:25:14.850Z,66.60
2018-02-26T18:27:48.146Z,66.70
2018-02-26T19:01:04.769Z,69.80
2018-02-26T19:03:40.234Z,69.70
2018-02-26T19:06:15.613Z,69.50
2018-02-26T19:08:51.833Z,68.90
2018-02-26T19:11:27.694Z,69.40
2018-02-26T19:14:04.212Z,69.50
2018-02-26T19:16:39.739Z,69.10
2018-02-26T19:19:15.788Z,69.50
2018-02-26T19:21:51.365Z,69.90
2018-02-26T19:24:27.011Z,69.60
2018-02-26T19:27:02.091Z,69.70
2018-02-26T19:29:37.482Z,70.10
2018-02-26T19:32:12.721Z,69.70
2018-02-26T19:34:49.108Z,70.10
2018-02-26T19:37:24.714Z,69.90
2018-02-26T19:40:00.666Z,70.20
2018-02-26T19:42:37.138Z,69.70
2018-02-26T19:45:14.119Z,69.70
2018-02-26T19:47:49.933Z,69.50
2018-02-26T19:50:26.132Z,69.40
2018-02-26T19:53:03.841Z,70.60
2018-02-26T19:55:39.469Z,70.50
2018-02-26T20:01:23.344Z,70.10
2018-02-26T20:03:58.694Z,69.70
2018-02-26T20:06:34.182Z,69.90
2018-02-26T20:09:09.564Z,70.10
2018-02-26T20:11:45.408Z,70.70
2018-02-26T20:14:20.892Z,70.80
2018-02-26T20:16:57.933Z,70.80
2018-02-26T20:19:34.853Z,70.20
2018-02-26T20:22:10.458Z,70.20
2018-02-26T20:24:46.068Z,70.00
2018-02-26T20:27:21.401Z,70.40
2018-02-26T20:29:56.672Z,70.00
2018-02-26T20:32:32.296Z,70.20
2018-02-26T20:35:08.139Z,69.50
2018-02-26T20:37:43.545Z,69.70
2018-02-26T20:40:18.806Z,70.00
2018-02-26T20:42:55.508Z,69.90
2018-02-26T20:45:31.615Z,69.60
2018-02-26T20:48:07.349Z,69.50
2018-02-26T20:50:43.957Z,69.30
2018-02-26T20:53:19.244Z,69.10
2018-02-26T20:55:54.432Z,69.20
2018-02-26T20:58:30.640Z,69.50
2018-02-26T21:01:07.497Z,69.20
2018-02-26T21:03:44.077Z,68.60
2018-02-26T21:06:21.614Z,69.30
2018-02-26T21:08:57.282Z,69.30
2018-02-26T21:11:32.620Z,69.10
2018-02-26T21:14:08.068Z,68.90
2018-02-26T21:16:43.439Z,69.20
2018-02-26T21:19:19.523Z,69.20
2018-02-26T21:21:55.314Z,68.70
2018-02-26T21:24:31.991Z,68.60
2018-02-26T21:27:07.487Z,68.50
2018-02-26T21:29:43.524Z,68.70
2018-02-26T21:32:18.658Z,68.50
2018-02-26T21:34:54.230Z,68.20
2018-02-26T21:37:29.435Z,68.90
2018-02-26T21:40:04.944Z,68.60
2018-02-26T21:42:38.296Z,68.60
2018-02-26T21:45:11.598Z,68.70
2018-02-26T21:47:44.913Z,68.40
2018-02-26T21:50:18.807Z,69.20
2018-02-26T21:52:51.461Z,68.30
2018-02-26T21:55:24.998Z,68.20
2018-02-26T21:57:58.594Z,68.00
2018-02-26T22:00:31.932Z,68.10
2018-02-26T22:03:04.586Z,68.10
2018-02-26T22:05:36.976Z,67.90
2018-02-26T22:08:10.154Z,68.30
2018-02-26T22:10:42.810Z,68.10
2018-02-26T22:13:15.489Z,68.20
2018-02-26T22:15:47.999Z,68.30
2018-02-26T22:18:20.504Z,68.30
2018-02-26T22:20:53.103Z,68.20
2018-02-26T22:23:25.693Z,68.30
2018-02-26T22:25:58.237Z,68.40
2018-02-26T22:28:31.497Z,68.30
2018-02-26T22:31:05.152Z,67.80
2018-02-26T22:33:37.885Z,68.00
2018-02-26T22:36:11.375Z,68.00
2018-02-26T22:38:44.144Z,68.00
2018-02-26T22:41:16.893Z,68.00
2018-02-26T22:43:50.220Z,68.40
2018-02-26T22:46:22.669Z,69.00
2018-02-26T22:48:56.658Z,69.10
2018-02-26T22:51:29.651Z,69.10
2018-02-26T22:54:03.334Z,69.40
2018-02-26T22:56:35.939Z,69.20
2018-02-26T22:59:08.713Z,69.40
2018-02-26T23:01:42.045Z,69.50
2018-02-26T23:04:14.773Z,69.20
2018-02-26T23:06:47.803Z,69.20
2018-02-26T23:09:20.577Z,68.90
2018-02-26T23:11:53.194Z,69.00
2018-02-26T23:14:25.754Z,68.70
2018-02-26T23:16:58.206Z,68.80
2018-02-26T23:19:30.678Z,68.70
2018-02-26T23:22:03.070Z,68.60
2018-02-26T23:24:35.493Z,68.40
2018-02-26T23:27:07.912Z,68.00
2018-02-26T23:29:41.032Z,68.90
2018-02-26T23:32:14.485Z,69.20
2018-02-26T23:34:47.173Z,68.90
2018-02-26T23:37:19.636Z,68.70
2018-02-26T23:39:52.128Z,68.50
2018-02-26T23:42:24.543Z,68.80
2018-02-26T23:44:57.036Z,68.80
2018-02-26T23:47:30.373Z,68.10
2018-02-26T23:50:02.767Z,68.80
2018-02-26T23:52:35.453Z,68.60
2018-02-26T23:55:08.757Z,68.80
2018-02-26T23:57:41.447Z,68.00
